Time;durP1;ratioP1;P1;durP2;ratioP2;P2;SDS_P1;SDS_P2;PMS_P1;PMS_P2;Temp;Humidity;BMP_temperature;BMP_pressure;BME280_temperature;BME280_humidity;BME280_pressure;Samples;Min_cycle;Max_cycle;Signal;HPM_P1;HPM_P2
2022/01/11 00:01:20;;;;;;;10.45;7.13;;;22.50;30.00;;;;;;5050470;28;20094;-69
2022/01/11 00:03:48;;;;;;;8.90;6.95;;;22.50;30.00;;;;;;5049962;28;20057;-69
2022/01/11 00:06:39;;;;;;;8.70;6.95;;;22.50;30.00;;;;;;5047900;28;20128;-69
2022/01/11 00:09:18;;;;;;;8.73;6.20;;;22.50;30.00;;;;;;5049585;28;20049;-69
2022/01/11 00:11:46;;;;;;;8.05;6.15;;;22.50;30.00;;;;;;5049749;28;20052;-69
2022/01/11 00:14:14;;;;;;;7.57;6.20;;;22.50;30.00;;;;;;5049868;28;20536;-68
2022/01/11 00:16:42;;;;;;;9.93;6.68;;;22.50;30.20;;;;;;5047524;28;20197;-69
2022/01/11 00:19:10;;;;;;;10.27;7.15;;;22.50;30.00;;;;;;5049449;28;20049;-69
2022/01/11 00:21:45;;;;;;;11.18;7.20;;;22.50;30.00;;;;;;5049606;28;20457;-69
2022/01/11 00:27:06;;;;;;;8.70;6.60;;;22.40;30.00;;;;;;5047562;28;20052;-69
2022/01/11 00:29:36;;;;;;;11.10;6.97;;;22.40;30.00;;;;;;5049177;28;20049;-69
2022/01/11 00:32:08;;;;;;;8.18;6.05;;;22.40;30.00;;;;;;5049118;28;20463;-69
2022/01/11 00:34:51;;;;;;;9.45;6.75;;;22.40;30.00;;;;;;5049623;28;20049;-69
2022/01/11 00:41:12;;;;;;;8.15;6.45;;;22.40;30.00;;;;;;5050408;28;20493;-69
2022/01/11 00:43:41;;;;;;;8.27;5.85;;;22.40;30.00;;;;;;5049545;28;20048;-68
2022/01/11 00:46:10;;;;;;;8.40;6.25;;;22.40;30.00;;;;;;5047584;28;20053;-69
2022/01/11 00:48:39;;;;;;;8.52;6.68;;;22.40;30.00;;;;;;5047934;28;20071;-69
2022/01/11 00:51:08;;;;;;;9.57;6.75;;;22.40;30.00;;;;;;5050129;28;20048;-69
2022/01/11 00:53:36;;;;;;;8.23;6.47;;;22.40;30.00;;;;;;5048133;28;20174;-70
2022/01/11 00:56:03;;;;;;;8.63;5.82;;;22.40;30.00;;;;;;5047956;28;20928;-69
2022/01/11 00:58:30;;;;;;;9.40;6.20;;;22.40;30.00;;;;;;5048689;28;20100;-69
2022/01/11 01:00:58;;;;;;;7.70;5.82;;;22.40;30.00;;;;;;5050151;28;20424;-69
2022/01/11 01:06:49;;;;;;;10.00;6.63;;;22.40;29.90;;;;;;5047067;28;20045;-69
2022/01/11 01:09:16;;;;;;;8.45;6.22;;;22.40;29.90;;;;;;5049670;28;20044;-69
2022/01/11 01:11:45;;;;;;;8.55;6.00;;;22.40;29.80;;;;;;5048952;28;20075;-70
2022/01/11 01:14:13;;;;;;;8.45;6.35;;;22.40;29.80;;;;;;5049346;28;20555;-69
2022/01/11 01:16:41;;;;;;;9.02;6.57;;;22.40;29.80;;;;;;5047096;28;20375;-70
2022/01/11 01:19:08;;;;;;;7.85;5.65;;;22.40;29.80;;;;;;5049263;28;20115;-69
2022/01/11 01:21:39;;;;;;;8.60;6.68;;;22.40;29.80;;;;;;5048252;28;20448;-69
2022/01/11 01:24:08;;;;;;;7.80;5.93;;;22.40;29.80;;;;;;5049095;28;20077;-69
2022/01/11 01:26:38;;;;;;;8.65;6.45;;;22.40;29.80;;;;;;5046866;28;20049;-69
2022/01/11 01:29:06;;;;;;;8.65;6.65;;;22.40;29.80;;;;;;5048897;28;20044;-69
2022/01/11 01:31:33;;;;;;;8.48;5.78;;;22.30;29.80;;;;;;5049312;28;20049;-69
2022/01/11 01:34:01;;;;;;;9.20;6.03;;;22.30;29.70;;;;;;5048938;28;20049;-69
2022/01/11 01:36:28;;;;;;;10.15;6.55;;;22.30;29.80;;;;;;5050147;28;20102;-69
2022/01/11 01:46:17;;;;;;;;;;;22.30;29.70;;;;;;5051205;28;20044;-69
2022/01/11 01:48:46;;;;;;;7.95;6.32;;;22.30;29.80;;;;;;5052202;28;19931;-69
2022/01/11 01:51:13;;;;;;;9.60;6.60;;;22.30;29.80;;;;;;5053374;28;20084;-69
2022/01/11 01:53:47;;;;;;;9.05;6.10;;;22.30;29.80;;;;;;5052083;28;20048;-69
2022/01/11 01:56:18;;;;;;;8.10;5.80;;;22.30;29.80;;;;;;5050693;28;20114;-69
2022/01/11 01:58:46;;;;;;;7.60;5.68;;;22.30;29.90;;;;;;5052312;28;20472;-69
2022/01/11 02:01:14;;;;;;;8.68;6.50;;;22.30;29.80;;;;;;5052706;28;20102;-69
2022/01/11 02:03:44;;;;;;;9.02;6.10;;;22.20;29.80;;;;;;5052365;28;20060;-69
2022/01/11 02:06:14;;;;;;;7.10;5.55;;;22.30;29.80;;;;;;5049374;28;20482;-69
2022/01/11 02:08:45;;;;;;;8.88;6.40;;;22.30;29.80;;;;;;5051532;28;20053;-68
2022/01/11 02:11:15;;;;;;;10.73;6.40;;;22.20;29.80;;;;;;5052518;28;20045;-69
2022/01/11 02:16:50;;;;;;;8.40;5.50;;;22.20;29.80;;;;;;5050223;28;20099;-69
2022/01/11 02:19:18;;;;;;;8.23;5.60;;;22.20;29.80;;;;;;5052230;28;20517;-69
2022/01/11 02:21:45;;;;;;;6.53;4.90;;;22.20;29.80;;;;;;5049274;28;20050;-69
2022/01/11 02:24:12;;;;;;;7.30;5.70;;;22.20;29.80;;;;;;5050783;28;20547;-69
2022/01/11 02:26:40;;;;;;;8.32;6.00;;;22.20;29.80;;;;;;5050091;28;20111;-69
2022/01/11 02:29:07;;;;;;;8.85;6.28;;;22.20;29.80;;;;;;5051851;28;20064;-69
2022/01/11 02:31:38;;;;;;;7.38;5.60;;;22.20;29.80;;;;;;5050895;28;20115;-69
2022/01/11 02:34:06;;;;;;;6.18;5.25;;;22.20;29.80;;;;;;5051779;28;20049;-69
2022/01/11 02:36:36;;;;;;;7.30;5.60;;;22.20;29.80;;;;;;5049322;28;20052;-68
2022/01/11 02:39:04;;;;;;;8.40;5.60;;;22.20;29.80;;;;;;5052202;28;20118;-68
2022/01/11 02:41:31;;;;;;;8.55;5.75;;;22.20;29.80;;;;;;5052320;28;20041;-68
2022/01/11 02:43:59;;;;;;;7.30;5.55;;;22.20;29.70;;;;;;5051627;28;20077;-68
2022/01/11 02:46:27;;;;;;;9.70;5.60;;;22.20;29.70;;;;;;5048821;28;20045;-68
2022/01/11 02:48:56;;;;;;;8.52;5.05;;;22.20;29.70;;;;;;5051214;28;20041;-69
2022/01/11 02:51:24;;;;;;;6.65;5.20;;;22.20;29.70;;;;;;5051882;28;20049;-68
2022/01/11 02:54:30;;;;;;;7.35;5.45;;;22.20;29.70;;;;;;5051261;28;20139;-69
2022/01/11 02:56:57;;;;;;;6.70;5.60;;;22.20;29.70;;;;;;5049348;28;20049;-69
2022/01/11 02:59:24;;;;;;;7.35;5.32;;;22.20;29.70;;;;;;5051960;28;20040;-68
2022/01/11 03:01:52;;;;;;;7.93;5.20;;;22.20;29.70;;;;;;5051822;28;20057;-68
2022/01/11 03:04:20;;;;;;;9.50;6.15;;;22.20;29.70;;;;;;5051738;28;20045;-69
2022/01/11 03:06:48;;;;;;;7.25;5.38;;;22.20;29.70;;;;;;5048608;28;20044;-68
2022/01/11 03:09:15;;;;;;;7.78;5.15;;;22.20;29.70;;;;;;5051440;28;20540;-68
2022/01/11 03:11:43;;;;;;;9.55;6.40;;;22.20;29.70;;;;;;5050107;28;20532;-68
2022/01/11 03:14:29;;;;;;;9.02;5.90;;;22.10;29.60;;;;;;5051540;28;20044;-68
2022/01/11 03:16:56;;;;;;;8.30;5.60;;;22.10;29.60;;;;;;5048845;28;20045;-72
2022/01/11 03:19:24;;;;;;;7.88;5.78;;;22.10;29.70;;;;;;5050344;28;20122;-68
2022/01/11 03:21:51;;;;;;;8.30;6.18;;;22.10;29.70;;;;;;5048425;28;20486;-68
2022/01/11 03:24:18;;;;;;;7.10;5.38;;;22.10;29.70;;;;;;5050923;28;20578;-68
2022/01/11 03:26:45;;;;;;;7.90;5.75;;;22.10;29.70;;;;;;5048724;28;20056;-68
2022/01/11 03:29:12;;;;;;;8.63;5.93;;;22.10;29.70;;;;;;5049632;28;20045;-68
2022/01/11 03:31:39;;;;;;;9.10;5.35;;;22.10;30.10;;;;;;5051044;28;20087;-68
2022/01/11 03:34:07;;;;;;;8.45;5.93;;;22.00;29.70;;;;;;5050790;28;20049;-68
2022/01/11 03:36:34;;;;;;;8.27;5.63;;;22.00;29.70;;;;;;5048420;28;20567;-68
2022/01/11 03:39:01;;;;;;;7.57;5.43;;;22.00;29.70;;;;;;5049468;28;20079;-69
2022/01/11 03:41:28;;;;;;;6.28;4.82;;;22.00;29.70;;;;;;5050426;28;20057;-67
2022/01/11 03:44:36;;;;;;;8.73;5.47;;;22.00;29.70;;;;;;5050440;28;20114;-68
2022/01/11 03:47:04;;;;;;;5.85;4.47;;;22.00;29.70;;;;;;5047932;28;20048;-68
2022/01/11 03:49:31;;;;;;;9.52;5.20;;;22.00;29.70;;;;;;5050788;28;20114;-67
2022/01/11 03:51:59;;;;;;;7.50;5.28;;;22.00;29.70;;;;;;5049573;28;20068;-68
2022/01/11 03:54:30;;;;;;;7.18;5.20;;;22.00;29.70;;;;;;5050980;28;20045;-67
2022/01/11 03:56:57;;;;;;;7.70;5.40;;;22.00;29.70;;;;;;5047926;28;20049;-67
2022/01/11 03:59:24;;;;;;;7.88;5.15;;;22.00;29.70;;;;;;5049207;28;20486;-68
2022/01/11 04:01:51;;;;;;;8.95;5.35;;;22.00;29.70;;;;;;5050464;28;20056;-67
2022/01/11 04:04:19;;;;;;;5.65;4.63;;;22.00;29.70;;;;;;5050619;28;20083;-68
2022/01/11 04:06:46;;;;;;;7.82;5.03;;;22.00;29.70;;;;;;5047801;28;20395;-67
2022/01/11 04:09:15;;;;;;;6.95;4.50;;;22.00;29.70;;;;;;5048954;28;20103;-67
2022/01/11 04:11:42;;;;;;;5.90;4.55;;;22.00;29.70;;;;;;5050167;28;20091;-69
2022/01/11 04:14:10;;;;;;;8.18;5.10;;;22.00;29.70;;;;;;5050282;28;20075;-67
2022/01/11 04:16:37;;;;;;;6.80;4.95;;;22.00;29.70;;;;;;5047981;28;20053;-70
2022/01/11 04:19:04;;;;;;;6.63;5.22;;;22.00;29.70;;;;;;5049810;28;20481;-67
2022/01/11 04:21:31;;;;;;;6.53;5.00;;;22.00;29.70;;;;;;5050595;28;20079;-67
2022/01/11 04:23:58;;;;;;;8.00;5.22;;;22.00;29.70;;;;;;5049145;28;20049;-68
2022/01/11 04:26:25;;;;;;;7.07;5.07;;;21.90;29.70;;;;;;5048023;28;20135;-67
2022/01/11 04:28:53;;;;;;;8.07;5.75;;;21.90;29.70;;;;;;5049547;28;20045;-67
2022/01/11 04:31:20;;;;;;;7.38;4.93;;;22.00;29.70;;;;;;5050310;28;20076;-68
2022/01/11 04:33:47;;;;;;;6.75;5.07;;;22.00;29.70;;;;;;5035512;28;20042;-68
2022/01/11 04:36:14;;;;;;;7.78;5.28;;;22.00;29.70;;;;;;5031131;28;20049;-68
2022/01/11 04:38:42;;;;;;;5.22;4.57;;;22.00;29.70;;;;;;5049182;28;20053;-68
2022/01/11 04:41:09;;;;;;;6.53;4.75;;;22.00;29.60;;;;;;5049686;28;20076;-67
2022/01/11 04:43:36;;;;;;;7.25;5.18;;;22.00;29.70;;;;;;5048432;28;20103;-68
2022/01/11 04:46:03;;;;;;;6.55;4.75;;;22.00;29.60;;;;;;5048627;28;20041;-68
2022/01/11 04:48:32;;;;;;;6.32;4.78;;;22.00;30.00;;;;;;5048492;28;20057;-68
2022/01/11 04:51:01;;;;;;;6.88;4.65;;;22.00;29.60;;;;;;5048566;28;20132;-68
2022/01/11 04:53:28;;;;;;;7.53;4.60;;;22.00;29.60;;;;;;5048573;28;20452;-68
2022/01/11 04:55:56;;;;;;;6.15;4.97;;;22.00;29.60;;;;;;5047224;28;20045;-68
2022/01/11 04:58:23;;;;;;;7.15;5.07;;;22.00;29.60;;;;;;5048002;28;20045;-68
2022/01/11 05:00:51;;;;;;;7.60;5.22;;;22.00;29.60;;;;;;5049808;28;20045;-68
2022/01/11 05:03:19;;;;;;;7.18;4.95;;;22.00;29.50;;;;;;5050124;28;20057;-68
2022/01/11 05:05:46;;;;;;;6.30;4.70;;;22.00;29.60;;;;;;5048718;28;20069;-68
2022/01/11 05:08:14;;;;;;;8.35;4.85;;;22.00;29.60;;;;;;5048203;28;20524;-68
2022/01/11 05:10:44;;;;;;;7.28;5.30;;;22.00;29.60;;;;;;5051840;28;20088;-68
2022/01/11 05:13:13;;;;;;;5.80;4.43;;;21.90;29.60;;;;;;5053632;28;20383;-67
2022/01/11 05:15:41;;;;;;;8.95;5.13;;;21.90;29.60;;;;;;5049809;28;20079;-67
2022/01/11 05:18:10;;;;;;;5.57;4.47;;;21.90;29.60;;;;;;5048514;28;20088;-67
2022/01/11 05:20:39;;;;;;;5.60;4.53;;;21.90;29.60;;;;;;5053741;28;20049;-67
2022/01/11 05:23:07;;;;;;;6.63;4.68;;;21.90;29.60;;;;;;5053828;28;20045;-68
2022/01/11 05:25:35;;;;;;;5.88;4.38;;;21.90;29.60;;;;;;5052596;28;20041;-67
2022/01/11 05:28:03;;;;;;;6.35;4.68;;;21.90;29.60;;;;;;5051869;28;20560;-68
2022/01/11 05:30:30;;;;;;;6.45;4.50;;;21.90;29.60;;;;;;5051726;28;20045;-68
2022/01/11 05:32:58;;;;;;;6.30;4.45;;;21.90;29.60;;;;;;5053601;28;20115;-68
2022/01/11 05:35:25;;;;;;;6.22;4.78;;;21.90;29.60;;;;;;5052328;28;20057;-68
2022/01/11 05:37:53;;;;;;;6.57;4.60;;;21.90;29.60;;;;;;5051700;28;20049;-68
2022/01/11 05:40:21;;;;;;;6.00;4.68;;;21.90;29.60;;;;;;5053618;28;20048;-69
2022/01/11 05:42:50;;;;;;;7.28;4.80;;;21.90;29.60;;;;;;5053096;28;20116;-68
2022/01/11 05:45:17;;;;;;;7.55;5.10;;;21.90;29.60;;;;;;5052792;28;20080;-68
2022/01/11 05:47:47;;;;;;;8.20;5.72;;;21.90;29.60;;;;;;5039615;28;20100;-68
2022/01/11 05:50:15;;;;;;;6.03;4.47;;;21.90;29.60;;;;;;5032887;28;20400;-68
2022/01/11 05:52:42;;;;;;;6.93;5.13;;;21.90;29.60;;;;;;5033429;28;20049;-68
2022/01/11 05:55:11;;;;;;;7.80;5.10;;;21.80;29.60;;;;;;5031633;28;20076;-68
2022/01/11 05:57:38;;;;;;;5.32;3.92;;;21.90;29.60;;;;;;5050675;28;20045;-68
2022/01/11 06:00:09;;;;;;;5.72;4.25;;;21.90;29.60;;;;;;5052493;28;20052;-68
2022/01/11 06:02:37;;;;;;;5.63;4.57;;;21.90;29.60;;;;;;5053035;28;20044;-68
2022/01/11 06:05:04;;;;;;;7.38;4.82;;;21.80;29.60;;;;;;5052733;28;20448;-69
2022/01/11 06:07:32;;;;;;;5.95;4.63;;;21.80;29.50;;;;;;5049576;28;20044;-68
2022/01/11 06:09:59;;;;;;;5.53;4.32;;;21.80;29.60;;;;;;5052779;28;20049;-68
2022/01/11 06:12:26;;;;;;;6.30;4.63;;;21.80;29.50;;;;;;5052507;28;20045;-69
2022/01/11 06:14:54;;;;;;;7.25;5.13;;;21.80;29.50;;;;;;5052179;28;20049;-69
2022/01/11 06:17:22;;;;;;;6.93;4.82;;;21.70;29.40;;;;;;5040021;28;20056;-69
2022/01/11 06:19:49;;;;;;;7.15;5.15;;;21.70;29.40;;;;;;5050468;28;20094;-68
2022/01/11 06:22:16;;;;;;;7.35;4.72;;;21.70;29.40;;;;;;5050999;28;20103;-68
2022/01/11 06:24:43;;;;;;;8.40;5.47;;;21.70;29.30;;;;;;5052087;28;20456;-68
2022/01/11 06:27:10;;;;;;;7.47;5.03;;;21.70;29.30;;;;;;5043569;28;20095;-68
2022/01/11 06:29:37;;;;;;;8.07;5.47;;;21.80;29.20;;;;;;5031521;28;20391;-68
2022/01/11 06:32:05;;;;;;;6.75;4.72;;;21.80;29.20;;;;;;5031202;28;20154;-69
2022/01/11 06:34:32;;;;;;;7.43;5.47;;;21.80;29.10;;;;;;5030504;28;20049;-70
2022/01/11 06:37:00;;;;;;;6.25;5.10;;;21.90;29.10;;;;;;5035611;28;20045;-73
2022/01/11 06:39:27;;;;;;;8.40;5.43;;;21.90;29.00;;;;;;5048173;28;20103;-67
2022/01/11 06:41:54;;;;;;;7.38;4.53;;;22.00;29.00;;;;;;5048319;28;20076;-68
2022/01/11 06:44:21;;;;;;;9.10;5.93;;;22.00;28.90;;;;;;5049982;28;20045;-69
2022/01/11 06:46:48;;;;;;;7.43;5.40;;;22.10;28.90;;;;;;5040402;28;20087;-69
2022/01/11 06:49:15;;;;;;;8.07;5.93;;;22.10;28.80;;;;;;5046837;28;20048;-69
2022/01/11 06:51:43;;;;;;;7.78;5.93;;;22.20;28.70;;;;;;5080727;28;20061;-66
2022/01/11 06:54:10;;;;;;;8.93;5.72;;;22.20;28.70;;;;;;5047868;28;20107;-66
2022/01/11 06:56:37;;;;;;;9.07;6.15;;;22.30;29.20;;;;;;5041775;28;20049;-66
2022/01/11 06:59:04;;;;;;;8.63;6.70;;;22.30;29.00;;;;;;5051229;28;20044;-66
2022/01/11 07:01:32;;;;;;;9.80;6.05;;;22.40;28.80;;;;;;5050884;28;20097;-66
2022/01/11 07:03:59;;;;;;;10.68;6.32;;;22.40;28.70;;;;;;5050014;28;20057;-66
2022/01/11 07:06:26;;;;;;;7.32;5.32;;;22.50;28.70;;;;;;5045552;28;20098;-66
2022/01/11 07:08:53;;;;;;;8.02;5.53;;;22.50;28.60;;;;;;5064464;28;20113;-69
2022/01/11 07:11:23;;;;;;;8.60;5.90;;;22.60;28.50;;;;;;5053129;28;20076;-66
2022/01/11 07:13:50;;;;;;;8.17;5.73;;;22.70;28.60;;;;;;5069978;28;20048;-66
2022/01/11 07:16:18;;;;;;;8.85;6.25;;;22.70;28.50;;;;;;5060468;28;20665;-63
2022/01/11 07:18:47;;;;;;;10.23;6.43;;;22.80;28.50;;;;;;5046243;28;20144;-67
2022/01/11 07:21:14;;;;;;;9.30;6.68;;;22.90;28.60;;;;;;5050601;28;20367;-67
2022/01/11 07:23:41;;;;;;;9.15;5.53;;;22.90;29.00;;;;;;5051013;28;20103;-67
2022/01/11 07:26:08;;;;;;;10.25;6.53;;;23.00;29.10;;;;;;5047231;28;20084;-66
2022/01/11 07:28:36;;;;;;;9.75;6.38;;;23.00;29.00;;;;;;5047688;28;20114;-65
2022/01/11 07:31:03;;;;;;;9.50;6.47;;;23.10;29.10;;;;;;5050269;28;20083;-66
2022/01/11 07:33:30;;;;;;;9.50;5.53;;;23.20;29.20;;;;;;5049784;28;20094;-67
2022/01/11 07:35:59;;;;;;;8.77;6.03;;;23.20;29.30;;;;;;5046393;28;20787;-67
2022/01/11 07:38:26;;;;;;;9.00;6.50;;;23.30;29.30;;;;;;5047337;28;20041;-72
2022/01/11 07:40:53;;;;;;;8.95;6.28;;;23.30;29.30;;;;;;5051470;28;20049;-71
2022/01/11 07:43:20;;;;;;;9.68;5.47;;;23.40;29.40;;;;;;5051528;28;20041;-70
2022/01/11 07:45:47;;;;;;;8.98;5.90;;;23.40;29.40;;;;;;5049530;28;20053;-68
2022/01/11 07:48:15;;;;;;;8.60;6.07;;;23.50;29.10;;;;;;5049205;28;20040;-68
2022/01/11 07:50:42;;;;;;;9.20;6.43;;;23.60;29.10;;;;;;5051071;28;20044;-70
2022/01/11 07:53:09;;;;;;;8.32;5.78;;;23.60;29.10;;;;;;5049932;28;20099;-69
2022/01/11 07:55:38;;;;;;;9.75;6.43;;;23.70;29.20;;;;;;5048238;28;20044;-68
2022/01/11 07:58:05;;;;;;;9.38;6.30;;;23.70;29.10;;;;;;5045590;28;20513;-70
2022/01/11 08:00:32;;;;;;;9.07;6.38;;;23.80;29.10;;;;;;5042028;28;20049;-70
2022/01/11 08:03:00;;;;;;;11.25;6.85;;;23.90;29.00;;;;;;5044368;28;20072;-69
2022/01/11 08:05:27;;;;;;;10.45;6.47;;;23.90;28.90;;;;;;5042139;28;20083;-70
2022/01/11 08:07:55;;;;;;;9.88;6.20;;;24.00;28.80;;;;;;5042296;28;20064;-74
2022/01/11 08:10:22;;;;;;;9.15;6.07;;;24.00;28.80;;;;;;5044752;28;20094;-70
2022/01/11 08:12:51;;;;;;;9.63;5.80;;;24.10;28.80;;;;;;5039066;28;20045;-73
2022/01/11 08:15:20;;;;;;;9.93;6.22;;;24.10;28.70;;;;;;5051668;28;20130;-72
2022/01/11 08:21:56;;;;;;;8.15;6.53;;;24.30;28.60;;;;;;5050331;28;20047;-72
2022/01/11 08:24:23;;;;;;;7.95;5.78;;;24.30;28.30;;;;;;5050339;28;20061;-70
2022/01/11 08:26:51;;;;;;;8.15;6.40;;;24.40;28.40;;;;;;5049001;28;20083;-69
2022/01/11 08:29:20;;;;;;;11.85;7.40;;;24.40;28.60;;;;;;5050080;28;20053;-70
2022/01/11 08:31:48;;;;;;;10.07;6.25;;;24.50;28.20;;;;;;5046944;28;20118;-69
2022/01/11 08:34:15;;;;;;;9.88;6.55;;;24.50;28.20;;;;;;5048084;28;20136;-69
2022/01/11 08:36:44;;;;;;;11.63;6.82;;;24.60;28.20;;;;;;5048868;28;20053;-71
2022/01/11 08:39:13;;;;;;;11.20;7.00;;;24.60;28.20;;;;;;5048897;28;20098;-68
2022/01/11 08:41:41;;;;;;;8.93;6.45;;;24.60;28.20;;;;;;5045288;28;20103;-67
2022/01/11 08:44:11;;;;;;;11.57;7.05;;;24.70;28.20;;;;;;5063346;28;20432;-66
2022/01/11 08:46:43;;;;;;;9.18;7.00;;;24.70;27.70;;;;;;5068602;28;20486;-67
2022/01/11 08:49:12;;;;;;;9.57;6.88;;;24.70;27.50;;;;;;5069423;28;20048;-71
2022/01/11 08:51:40;;;;;;;9.70;6.60;;;24.80;27.40;;;;;;5067708;28;20056;-72
2022/01/11 08:54:11;;;;;;;8.30;6.65;;;24.80;27.20;;;;;;5048189;28;20293;-67
2022/01/11 08:56:40;;;;;;;10.15;6.65;;;24.80;27.10;;;;;;5047203;28;20067;-69
2022/01/11 08:59:08;;;;;;;8.35;7.10;;;24.90;27.00;;;;;;5048531;28;20064;-68
2022/01/11 09:01:35;;;;;;;10.05;6.70;;;24.90;27.00;;;;;;5047663;28;20449;-68
2022/01/11 09:04:03;;;;;;;9.65;6.95;;;24.90;26.90;;;;;;5047889;28;20211;-69
2022/01/11 09:06:30;;;;;;;8.57;6.38;;;24.90;26.80;;;;;;5079530;28;20049;-70
2022/01/11 09:09:15;;;;;;;8.50;6.68;;;25.00;27.00;;;;;;5048653;28;20395;-69
2022/01/11 09:11:43;;;;;;;9.15;6.80;;;25.00;27.40;;;;;;5047575;28;20126;-68
2022/01/11 09:14:10;;;;;;;10.07;7.28;;;25.10;27.60;;;;;;5047944;28;20049;-69
2022/01/11 09:16:38;;;;;;;9.25;6.68;;;25.10;27.50;;;;;;5047916;28;20045;-68
2022/01/11 09:19:13;;;;;;;9.85;6.57;;;25.10;27.60;;;;;;5045163;28;20127;-70
2022/01/11 09:21:40;;;;;;;9.43;7.30;;;25.10;27.60;;;;;;5079036;28;20041;-72
2022/01/11 09:24:09;;;;;;;12.75;6.88;;;25.20;27.50;;;;;;5043335;28;20041;-73
2022/01/11 09:26:37;;;;;;;12.38;6.68;;;25.20;27.30;;;;;;5041561;28;20047;-70
2022/01/11 09:29:04;;;;;;;9.23;6.35;;;25.20;27.30;;;;;;5062695;28;20095;-70
2022/01/11 09:31:31;;;;;;;9.07;6.60;;;25.30;27.40;;;;;;5035916;28;20061;-69
2022/01/11 09:33:59;;;;;;;9.75;7.15;;;25.30;27.30;;;;;;5044929;28;20841;-69
2022/01/11 09:36:28;;;;;;;11.70;7.50;;;25.30;27.00;;;;;;5042335;28;20493;-69
2022/01/11 09:38:55;;;;;;;10.43;7.05;;;25.30;26.80;;;;;;5031765;28;20100;-67
2022/01/11 09:41:23;;;;;;;9.63;7.03;;;25.40;26.70;;;;;;5037855;28;20057;-69
2022/01/11 09:43:50;;;;;;;9.35;6.88;;;25.40;26.60;;;;;;5055339;28;20075;-68
2022/01/11 09:46:18;;;;;;;11.02;7.15;;;25.40;26.50;;;;;;5039008;28;20102;-70
2022/01/11 09:48:48;;;;;;;10.70;6.85;;;25.40;26.40;;;;;;5031934;28;20056;-71
2022/01/11 09:51:16;;;;;;;9.40;7.28;;;25.40;26.70;;;;;;5039917;28;20378;-69
2022/01/11 09:53:43;;;;;;;10.85;6.93;;;25.50;26.80;;;;;;5047892;28;20053;-70
2022/01/11 09:56:10;;;;;;;9.27;6.43;;;25.50;26.80;;;;;;5044349;28;20103;-74
2022/01/11 10:04:06;;;;;;;9.77;6.85;;;25.60;26.80;;;;;;5042616;28;20043;-73
2022/01/11 10:06:37;;;;;;;8.80;6.72;;;25.60;26.70;;;;;;5041842;28;20053;-74
2022/01/11 10:09:17;;;;;;;8.98;6.63;;;25.70;26.90;;;;;;5051397;28;20102;-75
2022/01/11 10:11:48;;;;;;;11.07;6.63;;;25.70;26.90;;;;;;5049658;28;20057;-69
2022/01/11 10:14:32;;;;;;;8.55;6.75;;;25.70;27.00;;;;;;5050872;28;20045;-71
2022/01/11 10:17:22;;;;;;;10.48;7.30;;;25.70;26.90;;;;;;5041926;28;20498;-73
2022/01/11 10:20:00;;;;;;;10.05;7.13;;;25.70;27.00;;;;;;5030359;28;20068;-67
2022/01/11 10:22:30;;;;;;;10.40;6.50;;;25.70;27.40;;;;;;5035930;28;20120;-70
2022/01/11 10:24:59;;;;;;;11.35;6.82;;;25.70;26.90;;;;;;5049289;28;20458;-68
2022/01/11 10:27:33;;;;;;;9.35;6.70;;;25.70;26.50;;;;;;5045131;28;20037;-68
2022/01/11 10:30:14;;;;;;;9.80;7.63;;;25.70;26.60;;;;;;5050058;28;20506;-68
2022/01/11 10:32:42;;;;;;;;;;;25.70;26.90;;;;;;5051337;28;20041;-68
2022/01/11 10:35:18;;;;;;;10.82;6.88;;;25.70;26.50;;;;;;5051178;28;20374;-67
2022/01/11 10:38:06;;;;;;;11.30;6.82;;;25.70;26.60;;;;;;5046069;28;20139;-68
2022/01/11 10:40:37;;;;;;;8.68;6.45;;;25.70;26.60;;;;;;5051038;28;20049;-68
2022/01/11 10:43:08;;;;;;;9.40;6.28;;;25.70;26.60;;;;;;5055614;28;20071;-70
2022/01/11 10:45:36;;;;;;;;;;;25.70;26.70;;;;;;5052509;28;20048;-67
2022/01/11 10:48:09;;;;;;;10.32;6.82;;;25.80;26.60;;;;;;5054046;28;20285;-69
2022/01/11 10:50:40;;;;;;;10.05;6.20;;;25.80;26.50;;;;;;5050155;28;20544;-69
2022/01/11 10:53:13;;;;;;;8.77;6.95;;;25.80;26.50;;;;;;5050797;28;20060;-68
2022/01/11 10:55:43;;;;;;;10.43;6.43;;;25.90;26.60;;;;;;5050392;28;20044;-69
2022/01/11 10:58:36;;;;;;;12.30;6.35;;;25.90;26.40;;;;;;5036613;28;20100;-72
2022/01/11 11:01:05;;;;;;;8.90;6.45;;;25.90;26.10;;;;;;5030493;28;20053;-66
2022/01/11 11:03:34;;;;;;;8.77;6.82;;;25.90;25.90;;;;;;5031332;28;20053;-67
2022/01/11 11:06:11;;;;;;;9.10;6.45;;;26.00;25.90;;;;;;5031348;28;20089;-70
2022/01/11 11:08:44;;;;;;;9.00;6.72;;;26.00;26.20;;;;;;5045151;28;20041;-70
2022/01/11 11:11:20;;;;;;;10.10;7.20;;;26.00;25.70;;;;;;5051242;28;20068;-68
2022/01/11 11:13:51;;;;;;;11.32;7.93;;;26.00;25.70;;;;;;5050403;28;20056;-68
2022/01/11 11:16:21;;;;;;;7.68;6.50;;;26.00;25.60;;;;;;5051320;28;20466;-68
2022/01/11 11:18:53;;;;;;;;;;;26.00;25.60;;;;;;5044941;28;20064;-67
2022/01/11 11:21:26;;;;;;;8.70;6.57;;;26.10;25.60;;;;;;5040482;28;19931;-67
2022/01/11 11:24:01;;;;;;;10.20;7.03;;;26.10;25.60;;;;;;5040563;28;20099;-70
2022/01/11 11:26:32;;;;;;;10.43;7.47;;;26.10;25.40;;;;;;5043473;28;20044;-70
2022/01/11 11:28:59;;;;;;;10.68;7.07;;;26.10;25.20;;;;;;5039124;28;20037;-69
2022/01/11 11:31:36;;;;;;;10.82;7.88;;;26.10;25.20;;;;;;5039780;28;20474;-70
2022/01/11 11:34:22;;;;;;;9.20;6.65;;;26.10;25.70;;;;;;5047431;28;20544;-70
2022/01/11 11:36:50;;;;;;;9.35;6.53;;;26.10;25.20;;;;;;5040430;28;20037;-70
2022/01/11 11:39:20;;;;;;;10.10;6.80;;;26.10;25.20;;;;;;5045602;28;20057;-71
2022/01/11 11:41:51;;;;;;;8.65;7.57;;;26.20;25.20;;;;;;5037906;28;20703;-67
2022/01/11 11:44:21;;;;;;;9.48;7.25;;;26.20;25.10;;;;;;5047503;28;20761;-67
2022/01/11 11:47:00;;;;;;;;;;;26.10;25.10;;;;;;5047741;28;20053;-67
2022/01/11 11:49:49;;;;;;;8.82;7.13;;;26.20;25.20;;;;;;5031468;28;19968;-67
2022/01/11 11:52:27;;;;;;;10.38;8.48;;;26.20;25.10;;;;;;5040371;28;20486;-67
2022/01/11 11:55:09;;;;;;;9.13;6.95;;;26.20;25.10;;;;;;5047844;28;20498;-67
2022/01/11 12:01:47;;;;;;;7.88;6.35;;;26.20;25.10;;;;;;5044424;28;20067;-71
2022/01/11 12:04:36;;;;;;;10.05;7.50;;;26.20;25.10;;;;;;5030771;28;20049;-70
2022/01/11 12:07:38;;;;;;;8.88;7.22;;;26.30;25.10;;;;;;5027568;28;20087;-67
2022/01/11 12:10:11;;;;;;;8.82;6.63;;;26.30;25.10;;;;;;5028020;28;20045;-67
2022/01/11 12:12:45;;;;;;;8.82;6.93;;;26.30;25.10;;;;;;5043267;28;20091;-67
2022/01/11 12:15:35;;;;;;;10.80;7.57;;;26.30;25.00;;;;;;5049320;28;20045;-68
2022/01/11 12:18:11;;;;;;;;;;;26.30;24.90;;;;;;5048537;28;20080;-68
2022/01/11 12:20:47;;;;;;;10.80;7.72;;;26.30;24.80;;;;;;5042725;28;20351;-67
2022/01/11 12:23:54;;;;;;;9.77;7.47;;;26.30;24.80;;;;;;5042202;28;20114;-67
2022/01/11 12:26:25;;;;;;;12.20;8.20;;;26.30;24.70;;;;;;5049252;28;20055;-68
2022/01/11 12:29:24;;;;;;;10.00;6.78;;;26.30;24.60;;;;;;5049178;28;20413;-69
2022/01/11 12:32:05;;;;;;;10.27;7.72;;;26.20;24.70;;;;;;5069168;28;20114;-67
2022/01/11 12:34:51;;;;;;;10.55;8.30;;;26.20;24.90;;;;;;5029706;28;20407;-66
2022/01/11 12:37:35;;;;;;;11.10;8.35;;;26.20;24.80;;;;;;5028142;28;20060;-67
2022/01/11 12:40:29;;;;;;;10.25;7.15;;;26.10;24.80;;;;;;5029138;28;20052;-67
2022/01/11 12:43:08;;;;;;;10.65;7.70;;;26.00;25.00;;;;;;5032334;28;20172;-67
2022/01/11 12:46:00;;;;;;;9.50;7.00;;;26.00;25.10;;;;;;5043349;28;20552;-66
2022/01/11 12:52:09;;;;;;;10.85;7.93;;;25.90;25.30;;;;;;5040837;28;20079;-67
2022/01/11 12:54:43;;;;;;;14.48;8.10;;;25.90;25.50;;;;;;5033661;28;20111;-67
2022/01/11 12:57:14;;;;;;;12.70;7.78;;;25.80;25.50;;;;;;5073412;28;20447;-70
2022/01/11 12:59:52;;;;;;;8.32;7.07;;;25.80;25.60;;;;;;5029098;28;20064;-71
2022/01/11 13:02:23;;;;;;;9.40;7.15;;;25.70;25.50;;;;;;5038549;28;20045;-70
2022/01/11 13:04:54;;;;;;;8.27;6.93;;;25.70;25.40;;;;;;5036822;28;20407;-69
2022/01/11 13:07:28;;;;;;;9.85;7.60;;;25.70;25.40;;;;;;5036952;28;20041;-69
2022/01/11 13:10:23;;;;;;;10.95;8.25;;;25.60;25.30;;;;;;5047486;28;20049;-69
2022/01/11 13:13:11;;;;;;;10.32;7.75;;;25.60;25.30;;;;;;5040943;28;20101;-69
2022/01/11 13:15:41;;;;;;;9.00;6.90;;;25.50;25.30;;;;;;5038592;28;20045;-71
2022/01/11 13:18:13;;;;;;;9.02;7.65;;;25.40;25.20;;;;;;5047208;28;20084;-69
2022/01/11 13:21:02;;;;;;;10.95;7.78;;;25.40;25.20;;;;;;5043863;28;20056;-68
2022/01/11 13:23:47;;;;;;;10.35;7.65;;;25.30;25.10;;;;;;5044746;28;20057;-67
2022/01/11 13:26:19;;;;;;;9.55;7.30;;;25.30;25.20;;;;;;5032275;28;20575;-68
2022/01/11 13:28:49;;;;;;;9.65;7.45;;;25.20;25.30;;;;;;5046234;28;20041;-67
2022/01/11 13:31:20;;;;;;;8.85;6.97;;;25.30;25.40;;;;;;5046651;28;20049;-67
2022/01/11 13:33:53;;;;;;;11.00;7.95;;;25.20;25.30;;;;;;5047581;28;20103;-67
2022/01/11 13:36:24;;;;;;;13.00;8.55;;;25.20;25.30;;;;;;5049846;28;20053;-67
2022/01/11 13:38:55;;;;;;;9.40;7.13;;;25.20;25.30;;;;;;5050382;28;20060;-67
2022/01/11 13:41:36;;;;;;;9.25;7.45;;;25.10;25.20;;;;;;5049141;28;20118;-67